createdAt,value
2023-02-12T00:00:36.337Z,57.29
2023-02-12T00:05:33.920Z,58.37
2023-02-12T00:10:34.257Z,58.05
2023-02-12T00:15:32.038Z,58.63
2023-02-12T00:20:32.477Z,57.54
2023-02-12T00:25:32.284Z,57.05
2023-02-12T00:30:33.822Z,60.64
2023-02-12T00:35:32.165Z,60.43
2023-02-12T00:40:35.043Z,60.48
2023-02-12T00:45:32.432Z,60.67
2023-02-12T00:50:31.807Z,60.76
2023-02-12T00:55:35.931Z,60.15
2023-02-12T01:00:32.890Z,60.97
2023-02-12T01:05:32.428Z,61.88
2023-02-12T01:10:32.967Z,61.43
2023-02-12T01:15:32.025Z,61.89
2023-02-12T01:20:29.100Z,62.11
2023-02-12T01:25:25.791Z,61.74
2023-02-12T01:30:27.295Z,62.09
2023-02-12T01:35:27.862Z,63.06
2023-02-12T01:40:24.745Z,63.69
2023-02-12T01:45:59.377Z,64.39
2023-02-12T01:51:02.376Z,64.78
2023-02-12T01:56:01.574Z,66.08
2023-02-12T02:00:59.355Z,66.29
2023-02-12T02:05:59.541Z,65.49
2023-02-12T02:10:56.973Z,65.45
2023-02-12T02:15:56.995Z,65.55
2023-02-12T02:21:14.590Z,65.62
2023-02-12T02:26:26.351Z,66.07
2023-02-12T02:31:26.948Z,65.71
2023-02-12T02:36:27.854Z,65.41
2023-02-12T02:41:29.233Z,65.71
2023-02-12T02:46:30.355Z,66.55
2023-02-12T02:51:30.047Z,66.50
2023-02-12T02:56:27.889Z,66.84
2023-02-12T03:01:29.075Z,66.24
2023-02-12T03:06:29.266Z,66.66
2023-02-12T03:11:27.476Z,65.96
2023-02-12T03:16:26.390Z,65.70
2023-02-12T03:21:28.170Z,66.12
2023-02-12T03:26:29.149Z,66.23
2023-02-12T03:31:31.465Z,66.78
2023-02-12T03:36:33.913Z,66.81
2023-02-12T03:41:32.604Z,66.67
2023-02-12T03:46:37.181Z,67.66
2023-02-12T03:51:35.690Z,67.34
2023-02-12T03:56:35.043Z,67.23
2023-02-12T04:01:33.327Z,67.85
2023-02-12T04:06:30.052Z,67.79
2023-02-12T04:11:34.119Z,68.27
2023-02-12T04:16:37.864Z,67.77
2023-02-12T04:21:43.561Z,68.12
2023-02-12T04:26:46.833Z,68.58
2023-02-12T04:31:47.624Z,68.53
2023-02-12T04:36:46.431Z,68.67
2023-02-12T04:41:43.096Z,68.13
2023-02-12T04:46:39.862Z,66.68
2023-02-12T04:51:37.172Z,68.13
2023-02-12T04:56:33.854Z,68.08
2023-02-12T05:01:31.531Z,68.35
2023-02-12T05:06:29.723Z,67.53
2023-02-12T05:11:27.153Z,68.91
2023-02-12T05:16:23.925Z,68.63
2023-02-12T05:21:20.983Z,69.04
2023-02-12T05:26:18.310Z,68.83
2023-02-12T05:31:19.985Z,68.45
2023-02-12T05:36:19.021Z,68.90
2023-02-12T05:41:16.785Z,68.58
2023-02-12T05:46:14.018Z,68.98
2023-02-12T05:51:12.403Z,68.82
2023-02-12T05:56:10.444Z,69.22
2023-02-12T06:01:10.999Z,68.20
2023-02-12T06:06:08.147Z,68.97
2023-02-12T06:11:06.515Z,68.62
2023-02-12T06:16:03.703Z,68.71
2023-02-12T06:21:00.629Z,68.94
2023-02-12T06:25:57.972Z,68.23
2023-02-12T06:30:55.685Z,67.35
2023-02-12T06:35:52.462Z,66.37
2023-02-12T06:40:49.383Z,66.89
2023-02-12T06:45:46.305Z,67.39
2023-02-12T06:50:43.670Z,67.67
2023-02-12T06:55:42.610Z,67.19
2023-02-12T07:00:39.453Z,67.40
2023-02-12T07:05:39.200Z,67.42
2023-02-12T07:10:36.508Z,67.69
2023-02-12T07:15:38.618Z,67.87
2023-02-12T07:20:35.328Z,68.00
2023-02-12T07:25:32.044Z,67.91
2023-02-12T07:30:32.411Z,67.48
2023-02-12T07:35:31.111Z,69.58
2023-02-12T07:40:28.041Z,69.85
2023-02-12T07:45:30.394Z,69.89
2023-02-12T07:50:28.105Z,70.12
2023-02-12T07:55:27.215Z,69.92
2023-02-12T08:00:23.867Z,70.37
2023-02-12T08:05:20.742Z,70.80
2023-02-12T08:10:31.397Z,70.33
2023-02-12T08:15:28.995Z,70.67
2023-02-12T08:20:25.697Z,70.74
2023-02-12T08:25:23.066Z,71.14
2023-02-12T08:30:22.728Z,70.18
2023-02-12T08:35:22.471Z,69.85
2023-02-12T08:40:19.551Z,70.25
2023-02-12T08:45:17.114Z,68.68
2023-02-12T08:50:13.854Z,70.04
2023-02-12T08:55:22.916Z,69.85
2023-02-12T09:00:21.246Z,69.70
2023-02-12T09:05:18.085Z,69.13
2023-02-12T09:10:15.178Z,69.09
2023-02-12T09:15:12.172Z,68.98
2023-02-12T09:20:10.632Z,68.74
2023-02-12T09:25:10.260Z,68.64
2023-02-12T09:30:07.849Z,67.94
2023-02-12T09:35:05.164Z,67.75
2023-02-12T09:40:04.252Z,68.15
2023-02-12T09:45:06.252Z,68.86
2023-02-12T09:50:13.249Z,68.31
2023-02-12T09:55:14.316Z,67.14
2023-02-12T10:00:20.354Z,67.75
2023-02-12T10:05:19.306Z,68.05
2023-02-12T10:10:28.988Z,68.51
2023-02-12T10:15:32.592Z,67.05
2023-02-12T10:20:47.173Z,68.91
2023-02-12T10:25:48.081Z,67.78
2023-02-12T10:30:48.449Z,67.51
2023-02-12T10:35:49.481Z,68.02
2023-02-12T10:40:47.131Z,67.30
2023-02-12T10:45:44.562Z,67.22
2023-02-12T10:50:47.059Z,66.04
2023-02-12T10:55:43.881Z,66.13
2023-02-12T11:00:41.461Z,65.97
2023-02-12T11:05:39.150Z,67.16
2023-02-12T11:10:38.976Z,66.68
2023-02-12T11:15:38.463Z,67.20
2023-02-12T11:20:38.753Z,67.12
2023-02-12T11:25:36.463Z,67.05
2023-02-12T11:30:33.536Z,67.17
2023-02-12T11:35:35.666Z,66.26
2023-02-12T11:40:33.450Z,66.83
2023-02-12T11:45:32.859Z,66.59
2023-02-12T11:50:30.762Z,65.55
2023-02-12T11:55:33.515Z,66.10
2023-02-12T12:00:33.261Z,66.88
2023-02-12T12:05:32.000Z,67.30
2023-02-12T12:10:34.063Z,66.45
2023-02-12T12:15:51.821Z,65.82
2023-02-12T12:20:54.827Z,65.38
2023-02-12T12:25:52.665Z,65.88
2023-02-12T12:30:56.924Z,64.93
2023-02-12T12:36:00.585Z,65.57
2023-02-12T12:41:02.768Z,64.65
2023-02-12T12:46:09.935Z,64.58
2023-02-12T12:51:15.437Z,62.69
2023-02-12T12:56:35.951Z,62.98
2023-02-12T13:01:40.013Z,62.40
2023-02-12T13:06:41.909Z,62.44
2023-02-12T13:11:42.742Z,62.50
2023-02-12T13:16:44.447Z,63.18
2023-02-12T13:21:46.188Z,63.58
2023-02-12T13:26:45.838Z,62.23
2023-02-12T13:31:45.486Z,62.63
2023-02-12T13:36:43.190Z,62.51
2023-02-12T13:41:41.825Z,61.80
2023-02-12T13:46:43.815Z,62.40
2023-02-12T13:51:43.029Z,61.54
2023-02-12T13:56:41.532Z,61.61
2023-02-12T14:01:45.071Z,61.35
2023-02-12T14:06:54.924Z,61.12
2023-02-12T14:11:53.194Z,61.51
2023-02-12T14:16:49.952Z,61.48
2023-02-12T14:21:49.347Z,61.76
2023-02-12T14:26:46.912Z,61.99
2023-02-12T14:31:43.817Z,61.78
2023-02-12T14:36:43.222Z,62.51
2023-02-12T14:41:43.004Z,62.06
2023-02-12T14:46:45.150Z,61.94
2023-02-12T14:51:44.648Z,62.44
2023-02-12T14:56:45.291Z,62.80
2023-02-12T15:01:44.886Z,62.42
2023-02-12T15:06:44.011Z,61.80
2023-02-12T15:11:43.554Z,61.53
2023-02-12T15:16:45.905Z,61.41
2023-02-12T15:21:45.742Z,60.17
2023-02-12T15:26:44.849Z,60.80
2023-02-12T15:31:42.049Z,60.92
2023-02-12T15:36:41.582Z,60.28
2023-02-12T15:41:39.730Z,60.55
2023-02-12T15:46:36.794Z,61.09
2023-02-12T15:51:35.450Z,61.43
2023-02-12T15:56:33.666Z,61.74
2023-02-12T16:01:32.743Z,61.87
2023-02-12T16:06:31.968Z,62.76
2023-02-12T16:11:32.998Z,62.12
2023-02-12T16:16:30.370Z,62.93
2023-02-12T16:21:29.513Z,63.24
2023-02-12T16:26:26.928Z,63.49
2023-02-12T16:31:25.638Z,63.68
2023-02-12T16:36:32.157Z,64.07
2023-02-12T16:41:30.493Z,63.78
2023-02-12T16:46:28.107Z,63.78
2023-02-12T16:51:27.847Z,63.71
2023-02-12T16:56:25.979Z,62.96
2023-02-12T17:01:23.886Z,63.41
2023-02-12T17:06:21.132Z,64.05
2023-02-12T17:11:18.643Z,63.82
2023-02-12T17:16:29.415Z,63.57
2023-02-12T17:21:28.647Z,63.83
2023-02-12T17:26:25.414Z,61.91
2023-02-12T17:31:24.080Z,61.90
2023-02-12T17:36:21.075Z,61.88
2023-02-12T17:41:18.035Z,63.03
2023-02-12T17:46:18.242Z,62.98
2023-02-12T17:51:20.687Z,62.13
2023-02-12T17:56:19.153Z,62.14
2023-02-12T18:01:16.829Z,61.24
2023-02-12T18:06:16.305Z,61.34
2023-02-12T18:11:14.127Z,61.17
2023-02-12T18:16:11.395Z,61.10
2023-02-12T18:21:17.637Z,61.33
2023-02-12T18:26:15.833Z,61.80
2023-02-12T18:31:15.935Z,61.84
2023-02-12T18:36:14.055Z,61.81
2023-02-12T18:41:12.354Z,62.51
2023-02-12T18:46:10.894Z,62.95
2023-02-12T18:51:08.355Z,63.59
2023-02-12T18:56:06.151Z,63.90
2023-02-12T19:01:12.617Z,64.57
2023-02-12T19:06:38.636Z,65.06
2023-02-12T19:11:49.764Z,63.65
2023-02-12T19:16:49.891Z,63.13
2023-02-12T19:21:50.144Z,62.46
2023-02-12T19:26:52.634Z,62.20
2023-02-12T19:32:10.893Z,62.42
2023-02-12T19:37:16.991Z,63.22
2023-02-12T19:42:18.750Z,64.33
2023-02-12T19:47:20.080Z,63.34
2023-02-12T19:52:20.606Z,62.99
2023-02-12T19:57:17.793Z,63.41
2023-02-12T20:02:14.652Z,63.80
2023-02-12T20:07:12.727Z,63.36
2023-02-12T20:12:11.697Z,63.54
2023-02-12T20:17:09.567Z,64.42
2023-02-12T20:22:06.478Z,64.33
2023-02-12T20:27:04.347Z,63.63
2023-02-12T20:32:02.422Z,63.24
2023-02-12T20:36:59.449Z,63.06
2023-02-12T20:41:56.378Z,62.82
2023-02-12T20:46:57.208Z,61.95
2023-02-12T20:51:54.356Z,61.94
2023-02-12T20:56:52.758Z,61.85
2023-02-12T21:01:49.602Z,63.38
2023-02-12T21:06:47.767Z,63.65
2023-02-12T21:11:45.267Z,63.65
2023-02-12T21:16:43.958Z,63.86
2023-02-12T21:21:41.693Z,62.90
2023-02-12T21:26:39.037Z,63.07
2023-02-12T21:31:36.868Z,63.10
2023-02-12T21:36:34.648Z,63.25
2023-02-12T21:41:34.188Z,63.08
2023-02-12T21:46:31.570Z,61.32
2023-02-12T21:51:29.934Z,61.53
2023-02-12T21:56:26.996Z,61.10
2023-02-12T22:01:24.628Z,60.82
2023-02-12T22:06:22.645Z,59.97
2023-02-12T22:11:21.724Z,60.28
2023-02-12T22:16:19.406Z,60.65
2023-02-12T22:21:16.962Z,61.53
2023-02-12T22:26:15.158Z,60.63
2023-02-12T22:31:13.389Z,58.92
2023-02-12T22:36:10.385Z,58.22
2023-02-12T22:41:09.010Z,58.49
2023-02-12T22:46:07.065Z,57.71
2023-02-12T22:51:07.800Z,57.28
2023-02-12T22:56:05.824Z,57.30
2023-02-12T23:01:09.702Z,57.57
2023-02-12T23:06:07.256Z,57.43
2023-02-12T23:11:05.935Z,57.23
2023-02-12T23:16:04.217Z,57.48
2023-02-12T23:21:01.713Z,57.45
2023-02-12T23:25:58.475Z,57.77
2023-02-12T23:30:58.600Z,57.43
2023-02-12T23:35:55.499Z,56.28
2023-02-12T23:40:52.836Z,56.46
2023-02-12T23:45:52.922Z,56.18
2023-02-12T23:50:52.229Z,56.97
2023-02-12T23:55:49.895Z,58.56
